Time;durP1;ratioP1;P1;durP2;ratioP2;P2;SDS_P1;SDS_P2;PMS_P1;PMS_P2;Temp;Humidity;BMP_temperature;BMP_pressure;BME280_temperature;BME280_humidity;BME280_pressure;Samples;Min_cycle;Max_cycle;Signal;HPM_P1;HPM_P2
2024/01/28 06:20:35;;;;;;;;;;;-3.30;99.90;;;;;;5881293;22;19955;-77
2024/01/28 06:23:03;;;;;;;;;;;-3.30;99.90;;;;;;5093574;28;20022;-77
2024/01/28 06:25:30;;;;;;;;;;;-3.30;99.90;;;;;;5093397;28;19968;-77
2024/01/28 06:27:56;;;;;;;;;;;-3.30;99.90;;;;;;5094047;28;19932;-78
2024/01/28 06:30:23;;;;;;;;;;;-3.30;99.90;;;;;;5093321;28;19925;-77
2024/01/28 06:32:49;;;;;;;;;;;-3.40;99.90;;;;;;5114242;28;19928;-77
2024/01/28 06:35:17;;;;;;;;;;;-3.40;99.90;;;;;;5117545;28;19990;-76
2024/01/28 06:37:44;;;;;;;;;;;-3.40;99.90;;;;;;5117482;28;19924;-76
2024/01/28 06:40:12;;;;;;;;;;;-3.50;99.90;;;;;;5117538;28;19924;-76
2024/01/28 06:42:39;;;;;;;;;;;-3.50;99.90;;;;;;5117277;28;19927;-76
2024/01/28 06:45:07;;;;;;;;;;;-3.50;99.90;;;;;;5117270;28;19924;-76
2024/01/28 06:47:34;;;;;;;;;;;-3.50;99.90;;;;;;5117511;28;19969;-76
2024/01/28 06:50:01;;;;;;;;;;;-3.50;99.90;;;;;;5117231;28;19923;-77
2024/01/28 06:52:27;;;;;;;;;;;-3.50;99.90;;;;;;5117479;28;19924;-77
2024/01/28 06:54:54;;;;;;;;;;;-3.50;99.90;;;;;;5117168;28;20020;-77
2024/01/28 06:57:21;;;;;;;;;;;-3.50;99.90;;;;;;5117194;28;19924;-77
2024/01/28 06:59:48;;;;;;;;;;;-3.50;99.90;;;;;;5116798;28;20410;-76
2024/01/28 07:02:15;;;;;;;;;;;-3.50;99.90;;;;;;5116630;28;19931;-76
2024/01/28 07:04:41;;;;;;;;;;;-3.40;99.90;;;;;;5116810;28;19930;-76
2024/01/28 07:07:08;;;;;;;;;;;-3.40;99.90;;;;;;5116982;28;19928;-77
2024/01/28 07:09:34;;;;;;;;;;;-3.40;99.90;;;;;;5116807;28;19924;-75
2024/01/28 07:12:02;;;;;;;;;;;-3.40;99.90;;;;;;5116804;28;19923;-76
2024/01/28 07:14:30;;;;;;;;;;;-3.30;99.90;;;;;;5116703;28;19928;-75
2024/01/28 07:16:57;;;;;;;;;;;-3.30;99.90;;;;;;5116739;28;19928;-75
2024/01/28 07:19:23;;;;;;;;;;;-3.30;99.90;;;;;;5116613;28;19924;-75
2024/01/28 07:21:51;;;;;;;;;;;-3.20;99.90;;;;;;5116110;28;20396;-75
2024/01/28 07:24:18;;;;;;;;;;;-3.20;99.90;;;;;;5116401;28;19927;-76
2024/01/28 07:26:46;;;;;;;;;;;-3.10;99.90;;;;;;5116284;28;20320;-75
2024/01/28 07:29:12;;;;;;;;;;;-3.10;99.90;;;;;;5116551;28;19973;-76
2024/01/28 07:31:40;;;;;;;;;;;-3.00;99.90;;;;;;5116601;28;19924;-76
2024/01/28 07:34:07;;;;;;;;;;;-2.90;99.90;;;;;;5116154;28;19930;-75
2024/01/28 07:36:33;;;;;;;;;;;-2.80;99.90;;;;;;5116315;28;19924;-75
2024/01/28 07:39:00;;;;;;;;;;;-2.70;99.90;;;;;;5116224;28;19931;-75
2024/01/28 07:41:28;;;;;;;;;;;-2.70;99.90;;;;;;5116632;28;19973;-76
2024/01/28 07:43:55;;;;;;;;;;;-2.60;99.90;;;;;;5116132;28;19971;-76
2024/01/28 07:46:22;;;;;;;;;;;-2.30;99.90;;;;;;5115746;28;19924;-76
2024/01/28 07:48:50;;;;;;;;;;;-1.60;99.90;;;;;;5116344;28;19969;-76
2024/01/28 07:51:16;;;;;;;;;;;-0.80;99.90;;;;;;5115983;28;19927;-75
2024/01/28 07:53:43;;;;;;;;;;;0.20;99.90;;;;;;5115924;28;19924;-77
2024/01/28 07:56:09;;;;;;;;;;;1.20;99.90;;;;;;5116118;28;19928;-76
2024/01/28 07:58:36;;;;;;;;;;;2.10;99.90;;;;;;5116110;28;19924;-76
2024/01/28 08:01:03;;;;;;;;;;;2.80;99.90;;;;;;5115763;28;19923;-75
2024/01/28 08:03:29;;;;;;;;;;;3.40;99.90;;;;;;5116030;28;19988;-76
2024/01/28 08:05:57;;;;;;;;;;;4.00;99.90;;;;;;5115789;28;19930;-76
2024/01/28 08:08:24;;;;;;;;;;;4.40;99.90;;;;;;5115840;28;20342;-76
2024/01/28 08:10:51;;;;;;;;;;;4.60;99.90;;;;;;5115584;28;19924;-76
2024/01/28 08:13:19;;;;;;;;;;;4.80;99.90;;;;;;5115694;28;19924;-76
2024/01/28 08:15:46;;;;;;;;;;;5.30;99.90;;;;;;5115687;28;19974;-76
2024/01/28 08:18:12;;;;;;;;;;;5.90;99.90;;;;;;5101792;22;19925;-76
2024/01/28 08:20:39;;;;;;;;;;;6.40;99.90;;;;;;5074710;28;19924;-76
2024/01/28 08:23:07;;;;;;;;;;;6.50;99.90;;;;;;5074984;28;19925;-78
2024/01/28 08:25:33;;;;;;;;;;;6.70;99.90;;;;;;5079652;28;19935;-77
2024/01/28 08:28:00;;;;;;;;;;;7.20;99.90;;;;;;5079503;28;19924;-79
2024/01/28 08:30:26;;;;;;;;;;;7.80;99.90;;;;;;5087020;28;19947;-79
2024/01/28 08:32:53;;;;;;;;;;;8.00;99.90;;;;;;5084379;28;19935;-78
2024/01/28 08:35:21;;;;;;;;;;;8.40;99.90;;;;;;5084317;28;19924;-78
2024/01/28 08:37:48;;;;;;;;;;;8.90;99.90;;;;;;5082973;28;20377;-80
2024/01/28 08:40:15;;;;;;;;;;;9.60;99.90;;;;;;5082083;28;19931;-77
2024/01/28 08:42:42;;;;;;;;;;;10.20;99.90;;;;;;5075879;28;19925;-82
2024/01/28 08:45:09;;;;;;;;;;;10.70;99.90;;;;;;5074640;28;19932;-76
2024/01/28 08:47:36;;;;;;;;;;;11.10;99.90;;;;;;5074542;28;19948;-76
2024/01/28 08:50:03;;;;;;;;;;;11.40;99.90;;;;;;5074579;28;20285;-75
2024/01/28 08:52:29;;;;;;;;;;;11.60;99.90;;;;;;5074545;28;19924;-75
2024/01/28 08:54:56;;;;;;;;;;;11.90;99.90;;;;;;5074040;28;20449;-76
2024/01/28 08:57:24;;;;;;;;;;;12.10;98.10;;;;;;5074160;28;19925;-76
2024/01/28 08:59:51;;;;;;;;;;;12.30;94.60;;;;;;5074468;28;19939;-76
2024/01/28 09:02:17;;;;;;;;;;;12.60;91.00;;;;;;5074355;28;19931;-76
2024/01/28 09:04:44;;;;;;;;;;;12.50;85.30;;;;;;5074591;28;19928;-76
2024/01/28 09:07:11;;;;;;;;;;;12.60;79.90;;;;;;5074455;28;19931;-75
2024/01/28 09:09:37;;;;;;;;;;;12.50;82.20;;;;;;5074149;28;19932;-75
2024/01/28 09:12:04;;;;;;;;;;;12.60;81.90;;;;;;5074129;28;19924;-76
2024/01/28 09:14:32;;;;;;;;;;;12.60;79.80;;;;;;5074321;28;19931;-76
2024/01/28 09:16:59;;;;;;;;;;;12.50;81.00;;;;;;5074176;28;19925;-77
2024/01/28 09:19:25;;;;;;;;;;;12.40;79.50;;;;;;5074741;28;19982;-76
2024/01/28 09:21:52;;;;;;;;;;;12.40;88.20;;;;;;5075517;28;19931;-77
2024/01/28 09:24:18;;;;;;;;;;;12.60;86.30;;;;;;5074736;28;19924;-76
2024/01/28 09:26:45;;;;;;;;;;;12.90;85.60;;;;;;5074178;28;19925;-76
2024/01/28 09:29:12;;;;;;;;;;;13.30;81.40;;;;;;5074253;28;19947;-77
2024/01/28 09:31:43;;;;;;;;;;;13.60;71.60;;;;;;5075222;28;19971;-78
2024/01/28 09:34:10;;;;;;;;;;;13.90;69.60;;;;;;5077193;28;19925;-78
2024/01/28 09:36:37;;;;;;;;;;;14.30;64.90;;;;;;5074853;28;20316;-77
2024/01/28 09:39:04;;;;;;;;;;;14.60;60.20;;;;;;5073936;28;19924;-77
2024/01/28 09:41:32;;;;;;;;;;;14.80;56.40;;;;;;5074186;28;19925;-76
2024/01/28 09:43:59;;;;;;;;;;;14.90;53.70;;;;;;5078342;28;19925;-77
2024/01/28 09:46:25;;;;;;;;;;;15.00;52.70;;;;;;5083239;28;19924;-77
2024/01/28 09:48:53;;;;;;;;;;;15.10;53.60;;;;;;5083851;28;19924;-78
2024/01/28 09:51:21;;;;;;;;;;;15.20;53.10;;;;;;5080115;28;19929;-77
2024/01/28 09:53:47;;;;;;;;;;;15.30;52.90;;;;;;5077105;28;19928;-74
2024/01/28 09:56:16;;;;;;;;;;;15.40;52.20;;;;;;5074783;28;20270;-76
2024/01/28 09:58:43;;;;;;;;;;;15.40;51.50;;;;;;5075332;28;20382;-76
2024/01/28 10:01:11;;;;;;;;;;;15.40;51.80;;;;;;5074521;28;20305;-74
2024/01/28 10:03:37;;;;;;;;;;;15.10;50.40;;;;;;5074536;28;19925;-75
2024/01/28 10:06:06;;;;;;;;;;;14.70;53.80;;;;;;5074729;28;19931;-74
2024/01/28 10:08:32;;;;;;;;;;;14.20;56.60;;;;;;5076310;28;20407;-75
2024/01/28 10:11:00;;;;;;;;;;;13.50;60.80;;;;;;5078357;28;20293;-74
2024/01/28 10:13:27;;;;;;;;;;;12.60;64.60;;;;;;5078622;28;19929;-73
2024/01/28 10:15:55;;;;;;;;;;;11.80;85.60;;;;;;5078115;28;19954;-73
2024/01/28 10:18:22;;;;;;;;;;;11.00;96.70;;;;;;5078230;28;20377;-74
2024/01/28 10:20:49;;;;;;;;;;;10.20;99.90;;;;;;5078328;28;20418;-75
2024/01/28 10:23:17;;;;;;;;;;;9.40;99.90;;;;;;5078705;28;19935;-75
2024/01/28 10:25:43;;;;;;;;;;;8.90;99.90;;;;;;5078945;28;19925;-74
2024/01/28 10:28:10;;;;;;;;;;;8.50;99.90;;;;;;5078730;28;19932;-75
2024/01/28 10:30:36;;;;;;;;;;;8.20;99.90;;;;;;5078856;28;19924;-75
2024/01/28 10:33:03;;;;;;;;;;;7.90;99.90;;;;;;5078113;28;19930;-74
2024/01/28 10:35:30;;;;;;;;;;;7.50;99.90;;;;;;5078091;28;19925;-74
2024/01/28 10:37:58;;;;;;;;;;;7.20;99.90;;;;;;5077015;28;19925;-74
2024/01/28 10:40:30;;;;;;;;;;;6.90;99.90;;;;;;5077056;28;19931;-74
2024/01/28 10:42:57;;;;;;;;;;;6.60;99.90;;;;;;5076860;28;19931;-73
2024/01/28 10:45:24;;;;;;;;;;;6.30;99.90;;;;;;5076835;28;19931;-73
2024/01/28 10:47:52;;;;;;;;;;;6.00;99.90;;;;;;5076722;28;19924;-74
2024/01/28 10:50:20;;;;;;;;;;;5.80;99.90;;;;;;5076711;28;19924;-74
2024/01/28 10:52:47;;;;;;;;;;;5.80;99.90;;;;;;5076778;28;19932;-74
2024/01/28 10:55:15;;;;;;;;;;;5.70;99.90;;;;;;5076826;28;20297;-74
2024/01/28 10:57:43;;;;;;;;;;;5.60;99.90;;;;;;5076713;28;19932;-74
2024/01/28 11:00:12;;;;;;;;;;;5.60;99.90;;;;;;5076227;28;20454;-74
2024/01/28 11:02:40;;;;;;;;;;;5.50;99.90;;;;;;5076518;28;19931;-74
2024/01/28 11:05:07;;;;;;;;;;;5.50;99.90;;;;;;5076354;28;20370;-74
2024/01/28 11:07:33;;;;;;;;;;;5.50;99.90;;;;;;5076327;28;19924;-74
2024/01/28 11:10:00;;;;;;;;;;;5.40;99.90;;;;;;5080194;28;19928;-73
2024/01/28 11:12:27;;;;;;;;;;;5.40;99.90;;;;;;5097415;28;19909;-74
2024/01/28 11:14:58;;;;;;;;;;;5.40;99.90;;;;;;5100846;28;19921;-74
2024/01/28 11:17:30;;;;;;;;;;;5.40;99.90;;;;;;5088144;28;19931;-74
2024/01/28 11:20:05;;;;;;;;;;;5.30;99.90;;;;;;5075044;28;19925;-74
2024/01/28 11:22:45;;;;;;;;;;;5.30;99.90;;;;;;5076329;28;19929;-74
2024/01/28 11:25:11;;;;;;;;;;;5.20;99.90;;;;;;5076281;28;19924;-74
2024/01/28 11:27:38;;;;;;;;;;;5.20;99.90;;;;;;5075949;28;19931;-74
2024/01/28 11:30:10;;;;;;;;;;;5.20;99.90;;;;;;5075745;28;20377;-74
2024/01/28 11:32:36;;;;;;;;;;;5.20;99.90;;;;;;5075980;28;19931;-74
2024/01/28 11:35:03;;;;;;;;;;;5.20;99.90;;;;;;5075887;28;19928;-74
2024/01/28 11:37:30;;;;;;;;;;;5.20;99.90;;;;;;5075934;28;19928;-74
2024/01/28 11:40:02;;;;;;;;;;;5.20;99.90;;;;;;5075755;28;19930;-74
2024/01/28 11:42:29;;;;;;;;;;;5.30;99.90;;;;;;5075441;28;19982;-74
2024/01/28 11:44:56;;;;;;;;;;;5.30;99.90;;;;;;5075309;28;20365;-74
2024/01/28 11:47:24;;;;;;;;;;;5.30;99.90;;;;;;5075551;28;19932;-74
2024/01/28 11:49:52;;;;;;;;;;;5.30;99.90;;;;;;5075567;28;19925;-74
2024/01/28 11:52:18;;;;;;;;;;;5.30;99.90;;;;;;5075546;28;19924;-74
2024/01/28 11:54:47;;;;;;;;;;;5.40;99.90;;;;;;5075471;28;20355;-74
2024/01/28 11:57:13;;;;;;;;;;;5.40;99.90;;;;;;5075355;28;19968;-74
2024/01/28 11:59:40;;;;;;;;;;;5.30;99.90;;;;;;5075601;28;19932;-74
2024/01/28 12:02:07;;;;;;;;;;;5.40;99.90;;;;;;5075477;28;19925;-74
2024/01/28 12:04:39;;;;;;;;;;;5.40;99.90;;;;;;5075242;28;19971;-74
2024/01/28 12:07:06;;;;;;;;;;;5.40;99.90;;;;;;5075276;28;19924;-74
2024/01/28 12:09:35;;;;;;;;;;;5.40;99.90;;;;;;5075359;28;19978;-74
2024/01/28 12:12:01;;;;;;;;;;;5.40;99.90;;;;;;5075389;28;19925;-73
2024/01/28 12:14:28;;;;;;;;;;;5.40;99.90;;;;;;5075124;28;19924;-73
2024/01/28 12:16:55;;;;;;;;;;;5.40;99.90;;;;;;5075173;28;19924;-73
2024/01/28 12:19:21;;;;;;;;;;;5.40;99.90;;;;;;5074953;28;19924;-73
2024/01/28 12:21:49;;;;;;;;;;;5.50;99.90;;;;;;5074556;28;20309;-73
2024/01/28 12:24:16;;;;;;;;;;;5.50;99.90;;;;;;5074773;28;20309;-74
2024/01/28 12:26:43;;;;;;;;;;;5.50;99.90;;;;;;5074888;28;19925;-74
2024/01/28 12:29:10;;;;;;;;;;;5.50;99.90;;;;;;5075045;28;20010;-73
2024/01/28 12:31:37;;;;;;;;;;;5.50;99.90;;;;;;5074310;28;19932;-73
2024/01/28 12:34:13;;;;;;;;;;;5.50;99.90;;;;;;5074712;28;19929;-73
2024/01/28 12:36:40;;;;;;;;;;;5.50;99.90;;;;;;5074632;28;19931;-73
2024/01/28 12:39:08;;;;;;;;;;;5.50;99.90;;;;;;5074651;28;19924;-73
2024/01/28 12:41:34;;;;;;;;;;;5.40;99.90;;;;;;5074523;28;19924;-74
2024/01/28 12:44:01;;;;;;;;;;;5.40;99.90;;;;;;5074480;28;19924;-74
2024/01/28 12:46:27;;;;;;;;;;;5.40;99.90;;;;;;5074507;28;19928;-74
2024/01/28 12:48:55;;;;;;;;;;;5.30;99.90;;;;;;5074505;28;19932;-74
2024/01/28 12:51:22;;;;;;;;;;;5.30;99.90;;;;;;5074473;28;19924;-74
2024/01/28 12:53:51;;;;;;;;;;;5.30;99.90;;;;;;5074634;28;19925;-71
2024/01/28 12:56:19;;;;;;;;;;;5.30;99.90;;;;;;5074374;28;19936;-73
2024/01/28 12:58:46;;;;;;;;;;;5.20;99.90;;;;;;5073963;28;20384;-74
2024/01/28 13:01:12;;;;;;;;;;;5.20;99.90;;;;;;5074276;28;20305;-72
2024/01/28 13:03:39;;;;;;;;;;;5.30;99.90;;;;;;5074701;28;19924;-73
2024/01/28 13:06:06;;;;;;;;;;;5.20;99.90;;;;;;5074438;28;19931;-73
2024/01/28 13:08:32;;;;;;;;;;;5.10;99.90;;;;;;5074409;28;19925;-72
2024/01/28 13:11:02;;;;;;;;;;;5.10;99.90;;;;;;5074273;28;19928;-72
2024/01/28 13:13:31;;;;;;;;;;;5.10;99.90;;;;;;5074033;28;19924;-72
2024/01/28 13:15:58;;;;;;;;;;;5.00;99.90;;;;;;5074139;28;19928;-72
2024/01/28 13:18:24;;;;;;;;;;;5.00;99.90;;;;;;5073571;28;19925;-72
2024/01/28 13:20:51;;;;;;;;;;;4.90;99.90;;;;;;5073603;28;20313;-72
2024/01/28 13:23:17;;;;;;;;;;;4.90;99.90;;;;;;5073619;28;19929;-72
2024/01/28 13:25:44;;;;;;;;;;;4.90;99.90;;;;;;5073852;28;19929;-72
2024/01/28 13:28:10;;;;;;;;;;;4.80;99.90;;;;;;5073766;28;19932;-72
2024/01/28 13:30:38;;;;;;;;;;;4.80;99.90;;;;;;5073725;28;19928;-72
2024/01/28 13:33:05;;;;;;;;;;;4.70;99.90;;;;;;5073803;28;19925;-72
2024/01/28 13:35:33;;;;;;;;;;;4.70;99.90;;;;;;5073621;28;19931;-73
2024/01/28 13:37:59;;;;;;;;;;;4.70;99.90;;;;;;5074566;28;19931;-73
2024/01/28 13:40:26;;;;;;;;;;;4.60;99.90;;;;;;5073780;28;19924;-73
2024/01/28 13:42:52;;;;;;;;;;;4.60;99.90;;;;;;5074146;28;20320;-73
2024/01/28 13:45:19;;;;;;;;;;;4.50;99.90;;;;;;5077453;28;20408;-73
2024/01/28 13:47:47;;;;;;;;;;;4.40;99.90;;;;;;5077488;28;20381;-73
2024/01/28 13:50:13;;;;;;;;;;;4.40;99.90;;;;;;5077746;28;19925;-73
2024/01/28 13:52:40;;;;;;;;;;;4.30;99.90;;;;;;5077823;28;19925;-73
2024/01/28 13:55:07;;;;;;;;;;;4.30;99.90;;;;;;5077757;28;19925;-73
2024/01/28 13:57:33;;;;;;;;;;;4.20;99.90;;;;;;5077630;28;19982;-73
2024/01/28 14:00:00;;;;;;;;;;;4.20;99.90;;;;;;5077643;28;19924;-73
2024/01/28 14:02:26;;;;;;;;;;;4.10;99.90;;;;;;5077492;28;19925;-73
2024/01/28 14:04:54;;;;;;;;;;;4.00;99.90;;;;;;5077448;28;19924;-73
2024/01/28 14:07:21;;;;;;;;;;;3.90;99.90;;;;;;5077288;28;19925;-73
2024/01/28 14:09:47;;;;;;;;;;;3.90;99.90;;;;;;5077434;28;19928;-73
2024/01/28 14:12:14;;;;;;;;;;;3.80;99.90;;;;;;5077331;28;19924;-73
2024/01/28 14:14:40;;;;;;;;;;;3.80;99.90;;;;;;5077842;28;19932;-73
2024/01/28 14:17:07;;;;;;;;;;;3.70;99.90;;;;;;5077467;28;19925;-73
2024/01/28 14:19:37;;;;;;;;;;;3.60;99.90;;;;;;5082107;28;20301;-72
2024/01/28 14:22:05;;;;;;;;;;;3.60;99.90;;;;;;5080585;28;20334;-72
2024/01/28 14:24:31;;;;;;;;;;;3.50;99.90;;;;;;5078496;28;19931;-73
2024/01/28 14:26:58;;;;;;;;;;;3.50;99.90;;;;;;5077348;28;19925;-73
2024/01/28 14:29:24;;;;;;;;;;;3.40;99.90;;;;;;5077131;28;19932;-73
2024/01/28 14:31:51;;;;;;;;;;;3.30;99.90;;;;;;5078500;28;19924;-73
2024/01/28 14:34:17;;;;;;;;;;;3.30;99.90;;;;;;5079174;28;19924;-72
2024/01/28 14:36:44;;;;;;;;;;;3.20;99.90;;;;;;5079007;28;19932;-74
2024/01/28 14:39:12;;;;;;;;;;;3.20;99.90;;;;;;5078650;28;19931;-74
2024/01/28 14:41:38;;;;;;;;;;;3.10;99.90;;;;;;5079003;28;19929;-74
2024/01/28 14:44:05;;;;;;;;;;;3.10;99.90;;;;;;5077944;28;19931;-74
2024/01/28 14:46:33;;;;;;;;;;;3.10;99.90;;;;;;5077889;28;19924;-74
2024/01/28 14:49:01;;;;;;;;;;;3.00;99.90;;;;;;5078688;28;19980;-74
2024/01/28 14:51:28;;;;;;;;;;;2.90;99.90;;;;;;5078288;28;19964;-75
2024/01/28 14:53:55;;;;;;;;;;;2.90;99.90;;;;;;5078496;28;19924;-74
2024/01/28 14:56:22;;;;;;;;;;;2.80;99.90;;;;;;5077846;28;19972;-74
2024/01/28 14:58:49;;;;;;;;;;;2.70;99.90;;;;;;5077553;28;19935;-74
2024/01/28 15:01:16;;;;;;;;;;;2.70;99.90;;;;;;5077547;28;19925;-74
2024/01/28 15:03:42;;;;;;;;;;;2.60;99.90;;;;;;5076446;28;19924;-74
2024/01/28 15:06:09;;;;;;;;;;;2.60;99.90;;;;;;5076339;28;19925;-74
2024/01/28 15:08:35;;;;;;;;;;;2.50;99.90;;;;;;5076320;28;19924;-74
2024/01/28 15:11:03;;;;;;;;;;;2.40;99.90;;;;;;5076457;28;19931;-74
2024/01/28 15:13:31;;;;;;;;;;;2.40;99.90;;;;;;5076770;28;19954;-73
2024/01/28 15:15:58;;;;;;;;;;;2.40;99.90;;;;;;5076681;28;20397;-73
2024/01/28 15:18:25;;;;;;;;;;;2.30;99.90;;;;;;5076507;28;19978;-74
2024/01/28 15:20:51;;;;;;;;;;;2.30;99.90;;;;;;5076649;28;20370;-74
2024/01/28 15:23:18;;;;;;;;;;;2.20;99.90;;;;;;5076541;28;19924;-75
2024/01/28 15:25:44;;;;;;;;;;;2.10;99.90;;;;;;5076524;28;19924;-74
2024/01/28 15:28:11;;;;;;;;;;;2.10;99.90;;;;;;5076691;28;19931;-74
2024/01/28 15:30:39;;;;;;;;;;;2.00;99.90;;;;;;5076535;28;19924;-74
2024/01/28 15:33:05;;;;;;;;;;;2.00;99.90;;;;;;5076441;28;19931;-74
2024/01/28 15:35:32;;;;;;;;;;;2.00;99.90;;;;;;5076012;28;19924;-74
2024/01/28 15:37:58;;;;;;;;;;;1.90;99.90;;;;;;5075734;28;19925;-74
2024/01/28 15:40:25;;;;;;;;;;;1.90;99.90;;;;;;5075753;28;19931;-74
2024/01/28 15:42:51;;;;;;;;;;;1.90;99.90;;;;;;5075731;28;19947;-74
2024/01/28 15:45:19;;;;;;;;;;;1.80;99.90;;;;;;5075380;28;20293;-74
2024/01/28 15:47:47;;;;;;;;;;;1.80;99.90;;;;;;5075542;28;19967;-74
2024/01/28 15:50:13;;;;;;;;;;;1.80;99.90;;;;;;5075659;28;19972;-74
2024/01/28 15:52:40;;;;;;;;;;;1.70;99.90;;;;;;5075801;28;19932;-73
2024/01/28 15:55:08;;;;;;;;;;;1.70;99.90;;;;;;5075447;28;19925;-74
2024/01/28 15:57:35;;;;;;;;;;;1.70;99.90;;;;;;5075579;28;19924;-72
2024/01/28 16:00:01;;;;;;;;;;;1.70;99.90;;;;;;5075063;28;19924;-72
2024/01/28 16:02:28;;;;;;;;;;;1.60;99.90;;;;;;5075373;28;19990;-72
2024/01/28 16:04:56;;;;;;;;;;;1.60;99.90;;;;;;5075268;28;19924;-72
2024/01/28 16:07:23;;;;;;;;;;;1.50;99.90;;;;;;5074465;28;19924;-73
2024/01/28 16:09:49;;;;;;;;;;;1.40;99.90;;;;;;5075176;28;19924;-73
2024/01/28 16:12:16;;;;;;;;;;;1.40;99.90;;;;;;5075053;28;19925;-72
2024/01/28 16:14:43;;;;;;;;;;;1.30;99.90;;;;;;5075036;28;19925;-72
2024/01/28 16:17:12;;;;;;;;;;;1.30;99.90;;;;;;5074879;28;19924;-73
2024/01/28 16:19:39;;;;;;;;;;;1.20;99.90;;;;;;5075018;28;19931;-73
2024/01/28 16:22:07;;;;;;;;;;;1.20;99.90;;;;;;5075034;28;19935;-74
2024/01/28 16:24:34;;;;;;;;;;;1.20;99.90;;;;;;5075212;28;19924;-74
2024/01/28 16:27:00;;;;;;;;;;;1.10;99.90;;;;;;5074660;28;19924;-74
2024/01/28 16:29:27;;;;;;;;;;;1.10;99.90;;;;;;5074614;28;19925;-73
2024/01/28 16:31:53;;;;;;;;;;;1.10;99.90;;;;;;5074479;28;20393;-73
2024/01/28 16:34:20;;;;;;;;;;;1.00;99.90;;;;;;5074682;28;19925;-74
2024/01/28 16:36:46;;;;;;;;;;;1.00;99.90;;;;;;5074696;28;19931;-74
2024/01/28 16:39:14;;;;;;;;;;;0.90;99.90;;;;;;5074646;28;19931;-74
2024/01/28 16:41:41;;;;;;;;;;;0.90;99.90;;;;;;5074547;28;19928;-74
2024/01/28 16:44:07;;;;;;;;;;;0.90;99.90;;;;;;5074475;28;20285;-73
2024/01/28 16:46:34;;;;;;;;;;;0.80;99.90;;;;;;5074465;28;19931;-74
2024/01/28 16:49:01;;;;;;;;;;;0.70;99.90;;;;;;5074403;28;19925;-74
2024/01/28 16:51:27;;;;;;;;;;;0.70;99.90;;;;;;5074320;28;20274;-73
2024/01/28 16:53:54;;;;;;;;;;;0.60;99.90;;;;;;5074037;28;19924;-73
2024/01/28 16:56:22;;;;;;;;;;;0.50;99.90;;;;;;5074321;28;19928;-73
2024/01/28 16:58:48;;;;;;;;;;;0.50;99.90;;;;;;5073821;28;20377;-74
2024/01/28 17:01:15;;;;;;;;;;;0.40;99.90;;;;;;5074191;28;19924;-73
2024/01/28 17:03:41;;;;;;;;;;;0.40;99.90;;;;;;5074204;28;20007;-74
2024/01/28 17:06:09;;;;;;;;;;;0.30;99.90;;;;;;5073824;28;19931;-73
2024/01/28 17:08:36;;;;;;;;;;;0.20;99.90;;;;;;5074374;28;19928;-73
2024/01/28 17:11:04;;;;;;;;;;;0.20;99.90;;;;;;5073971;28;19928;-74
2024/01/28 17:13:33;;;;;;;;;;;0.20;99.90;;;;;;5074393;28;19931;-73
2024/01/28 17:16:00;;;;;;;;;;;0.10;99.90;;;;;;5074388;28;19931;-74
2024/01/28 17:18:27;;;;;;;;;;;0.10;99.90;;;;;;5074268;28;19928;-74
2024/01/28 17:20:54;;;;;;;;;;;0.10;99.90;;;;;;5074502;28;19970;-74
2024/01/28 17:23:21;;;;;;;;;;;0.00;99.90;;;;;;5074169;28;19924;-74
2024/01/28 17:25:48;;;;;;;;;;;0.00;99.90;;;;;;5074178;28;19986;-74
2024/01/28 17:28:14;;;;;;;;;;;0.00;99.90;;;;;;5074036;28;19924;-75
2024/01/28 17:30:42;;;;;;;;;;;0.00;99.90;;;;;;5073889;28;19998;-75
2024/01/28 17:33:09;;;;;;;;;;;0.00;99.90;;;;;;5074113;28;19924;-75
2024/01/28 17:35:35;;;;;;;;;;;-0.10;99.90;;;;;;5073585;28;20377;-75
2024/01/28 17:38:02;;;;;;;;;;;-0.10;99.90;;;;;;5073580;28;19928;-75
2024/01/28 17:40:29;;;;;;;;;;;-0.20;99.90;;;;;;5073981;28;19931;-75
2024/01/28 17:42:55;;;;;;;;;;;-0.20;99.90;;;;;;5073887;28;19924;-75
2024/01/28 17:45:23;;;;;;;;;;;-0.30;99.90;;;;;;5073822;28;19924;-75
2024/01/28 17:47:52;;;;;;;;;;;-0.30;99.90;;;;;;5073605;28;19924;-74
2024/01/28 17:50:19;;;;;;;;;;;-0.30;99.90;;;;;;5073786;28;20035;-74
2024/01/28 17:52:46;;;;;;;;;;;-0.30;99.90;;;;;;5073906;28;19925;-74
2024/01/28 17:55:13;;;;;;;;;;;-0.40;99.90;;;;;;5073612;28;19994;-74
2024/01/28 17:57:39;;;;;;;;;;;-0.40;99.90;;;;;;5073673;28;19924;-74
2024/01/28 18:00:08;;;;;;;;;;;-0.40;99.90;;;;;;5074400;28;19925;-75
2024/01/28 18:02:35;;;;;;;;;;;-0.40;99.90;;;;;;5074303;28;19978;-76
2024/01/28 18:05:02;;;;;;;;;;;-0.50;99.90;;;;;;5074212;28;19931;-76
2024/01/28 18:07:29;;;;;;;;;;;-0.50;99.90;;;;;;5073424;28;19925;-75
2024/01/28 18:09:55;;;;;;;;;;;-0.50;99.90;;;;;;5073886;28;19932;-73
2024/01/28 18:12:22;;;;;;;;;;;-0.50;99.90;;;;;;5073687;28;19924;-73
2024/01/28 18:14:49;;;;;;;;;;;-0.60;99.90;;;;;;5073969;28;19932;-74
2024/01/28 18:17:16;;;;;;;;;;;-0.60;99.90;;;;;;5073300;28;20019;-73
2024/01/28 18:19:42;;;;;;;;;;;-0.60;99.90;;;;;;5073947;28;19931;-73
2024/01/28 18:22:10;;;;;;;;;;;-0.60;99.90;;;;;;5073506;28;19999;-74
2024/01/28 18:24:37;;;;;;;;;;;-0.60;99.90;;;;;;5073232;28;19924;-74
2024/01/28 18:27:04;;;;;;;;;;;-0.70;99.90;;;;;;5073286;28;19924;-74
2024/01/28 18:29:31;;;;;;;;;;;-0.70;99.90;;;;;;5075191;28;19928;-74
2024/01/28 18:31:58;;;;;;;;;;;-0.70;99.90;;;;;;5077220;28;20019;-73
2024/01/28 18:34:25;;;;;;;;;;;-0.70;99.90;;;;;;5077118;28;19934;-73
2024/01/28 18:36:51;;;;;;;;;;;-0.80;99.90;;;;;;5077476;28;19932;-73
2024/01/28 18:39:19;;;;;;;;;;;-0.70;99.90;;;;;;5077653;28;19925;-72
2024/01/28 18:41:46;;;;;;;;;;;-0.70;99.90;;;;;;5077145;28;19932;-74
2024/01/28 18:44:14;;;;;;;;;;;-0.80;99.90;;;;;;5077123;28;19925;-73
2024/01/28 18:46:40;;;;;;;;;;;-0.80;99.90;;;;;;5076830;28;19936;-73
2024/01/28 18:49:08;;;;;;;;;;;-0.80;99.90;;;;;;5076882;28;19924;-73
2024/01/28 18:51:34;;;;;;;;;;;-0.90;99.90;;;;;;5077416;28;19928;-73
2024/01/28 18:54:01;;;;;;;;;;;-0.90;99.90;;;;;;5076462;28;20397;-73
2024/01/28 18:56:31;;;;;;;;;;;-0.90;99.90;;;;;;5077155;28;19931;-74
2024/01/28 18:58:58;;;;;;;;;;;-0.90;99.90;;;;;;5077028;28;20397;-73
2024/01/28 19:01:24;;;;;;;;;;;-0.90;99.90;;;;;;5077139;28;19929;-73
2024/01/28 19:03:52;;;;;;;;;;;-0.90;99.90;;;;;;5076723;28;19925;-75
2024/01/28 19:06:18;;;;;;;;;;;-0.90;99.90;;;;;;5077058;28;19975;-74
2024/01/28 19:08:45;;;;;;;;;;;-0.90;99.90;;;;;;5077415;28;19929;-75
2024/01/28 19:11:12;;;;;;;;;;;-0.90;99.90;;;;;;5077727;28;19924;-75
2024/01/28 19:13:40;;;;;;;;;;;-0.90;99.90;;;;;;5077804;28;20374;-75
2024/01/28 19:16:07;;;;;;;;;;;-1.00;99.90;;;;;;5077883;28;19968;-75
2024/01/28 19:18:34;;;;;;;;;;;-1.00;99.90;;;;;;5077790;28;19931;-74
2024/01/28 19:21:01;;;;;;;;;;;-1.00;99.90;;;;;;5078175;28;19925;-74
2024/01/28 19:23:30;;;;;;;;;;;-1.00;99.90;;;;;;5077806;28;20246;-76
2024/01/28 19:25:56;;;;;;;;;;;-1.00;99.90;;;;;;5077845;28;19925;-75
2024/01/28 19:28:23;;;;;;;;;;;-1.00;99.90;;;;;;5077298;28;19924;-74
2024/01/28 19:30:51;;;;;;;;;;;-1.10;99.90;;;;;;5076861;28;19931;-76
2024/01/28 19:33:17;;;;;;;;;;;-1.10;99.90;;;;;;5077389;28;19925;-75
2024/01/28 19:35:50;;;;;;;;;;;-1.10;99.90;;;;;;5077039;28;20024;-73
2024/01/28 19:38:17;;;;;;;;;;;-1.10;99.90;;;;;;5077276;28;19924;-74
2024/01/28 19:40:45;;;;;;;;;;;-1.10;99.90;;;;;;5075216;28;19924;-75
2024/01/28 19:43:12;;;;;;;;;;;-1.10;99.90;;;;;;5076530;28;19948;-74
2024/01/28 19:45:38;;;;;;;;;;;-1.20;99.90;;;;;;5077204;28;19970;-74
2024/01/28 19:48:07;;;;;;;;;;;-1.20;99.90;;;;;;5077279;28;19924;-74
2024/01/28 19:50:33;;;;;;;;;;;-1.20;99.90;;;;;;5077146;28;19924;-75
2024/01/28 19:53:00;;;;;;;;;;;-1.20;99.90;;;;;;5076904;28;19925;-75
2024/01/28 19:55:27;;;;;;;;;;;-1.30;99.90;;;;;;5076741;28;19924;-75
2024/01/28 19:57:54;;;;;;;;;;;-1.30;99.90;;;;;;5076676;28;19932;-76
2024/01/28 20:00:20;;;;;;;;;;;-1.30;99.90;;;;;;5076453;28;19928;-75
2024/01/28 20:02:47;;;;;;;;;;;-1.30;99.90;;;;;;5076870;28;19947;-75
2024/01/28 20:05:16;;;;;;;;;;;-1.30;99.90;;;;;;5075872;28;21260;-74
2024/01/28 20:07:43;;;;;;;;;;;-1.30;99.90;;;;;;5076541;28;19924;-75
2024/01/28 20:10:10;;;;;;;;;;;-1.40;99.90;;;;;;5076346;28;19931;-75
2024/01/28 20:12:38;;;;;;;;;;;-1.40;99.90;;;;;;5076376;28;19924;-75
2024/01/28 20:15:06;;;;;;;;;;;-1.40;99.90;;;;;;5076021;28;19925;-75
2024/01/28 20:17:32;;;;;;;;;;;-1.50;99.90;;;;;;5075932;28;19932;-74
2024/01/28 20:19:59;;;;;;;;;;;-1.50;99.90;;;;;;5129959;22;19925;-72
2024/01/28 20:22:27;;;;;;;;;;;-1.50;99.90;;;;;;5098236;28;19931;-72
2024/01/28 20:24:54;;;;;;;;;;;-1.50;99.90;;;;;;5089939;28;19924;-71
2024/01/28 20:27:20;;;;;;;;;;;-1.50;99.90;;;;;;5097988;28;19924;-72
2024/01/28 20:29:47;;;;;;;;;;;-1.50;99.90;;;;;;5112288;28;19924;-72
2024/01/28 20:32:14;;;;;;;;;;;-1.50;99.90;;;;;;5131090;28;19924;-71
2024/01/28 20:34:42;;;;;;;;;;;-1.60;99.90;;;;;;5125202;28;19924;-71
2024/01/28 20:37:11;;;;;;;;;;;-1.60;99.90;;;;;;5118868;28;19924;-72
2024/01/28 20:39:39;;;;;;;;;;;-1.60;99.90;;;;;;5118587;28;19923;-71
2024/01/28 20:42:07;;;;;;;;;;;-1.60;99.90;;;;;;5118506;28;19924;-71